createdAt,value
2019-02-18T00:01:31.046Z,0.20
2019-02-18T00:03:57.721Z,0.30
2019-02-18T00:06:26.138Z,0.50
2019-02-18T00:08:52.782Z,0.40
2019-02-18T00:11:19.435Z,0.50
2019-02-18T00:13:46.149Z,0.50
2019-02-18T00:16:12.900Z,0.60
2019-02-18T00:18:39.625Z,0.60
2019-02-18T00:21:06.347Z,0.70
2019-02-18T00:23:33.776Z,0.70
2019-02-18T00:26:00.471Z,0.60
2019-02-18T00:28:27.151Z,0.70
2019-02-18T00:30:53.849Z,0.70
2019-02-18T00:33:20.612Z,0.80
2019-02-18T00:35:47.326Z,0.80
2019-02-18T00:38:14.046Z,0.90
2019-02-18T00:40:41.517Z,0.90
2019-02-18T00:43:08.175Z,0.90
2019-02-18T00:45:34.881Z,1.00
2019-02-18T00:48:02.381Z,1.10
2019-02-18T00:50:29.113Z,1.10
2019-02-18T00:52:55.822Z,1.10
2019-02-18T00:55:23.294Z,1.00
2019-02-18T00:57:50.700Z,1.10
2019-02-18T01:00:17.448Z,1.10
2019-02-18T01:02:44.241Z,1.10
2019-02-18T01:05:10.904Z,1.10
2019-02-18T01:07:37.615Z,1.10
2019-02-18T01:10:04.397Z,1.20
2019-02-18T01:12:31.144Z,1.20
2019-02-18T01:14:57.856Z,1.20
2019-02-18T01:17:24.799Z,1.30
2019-02-18T01:19:52.334Z,1.30
2019-02-18T01:22:19.006Z,1.30
2019-02-18T01:24:45.734Z,1.30
2019-02-18T01:27:12.453Z,1.40
2019-02-18T01:29:39.230Z,1.40
2019-02-18T01:32:05.929Z,1.40
2019-02-18T01:34:33.350Z,1.50
2019-02-18T01:37:00.132Z,1.50
2019-02-18T01:39:26.784Z,1.50
2019-02-18T01:41:53.540Z,1.50
2019-02-18T01:44:20.227Z,1.60
2019-02-18T01:46:47.637Z,1.50
2019-02-18T01:49:14.373Z,1.50
2019-02-18T01:51:41.296Z,1.50
2019-02-18T01:54:07.994Z,1.50
2019-02-18T01:56:34.681Z,1.50
2019-02-18T01:59:01.360Z,1.50
2019-02-18T02:01:28.104Z,1.50
2019-02-18T02:03:54.764Z,1.60
2019-02-18T02:06:22.183Z,1.60
2019-02-18T02:08:49.089Z,1.60
2019-02-18T02:11:15.780Z,1.60
2019-02-18T02:13:43.290Z,1.60
2019-02-18T02:16:10.133Z,1.60
2019-02-18T02:18:36.778Z,1.60
2019-02-18T02:21:04.531Z,1.80
2019-02-18T02:23:31.224Z,1.70
2019-02-18T02:25:57.872Z,1.80
2019-02-18T02:28:24.664Z,1.80
2019-02-18T02:30:51.437Z,1.80
2019-02-18T02:33:18.202Z,1.80
2019-02-18T02:35:44.928Z,1.80
2019-02-18T02:38:13.196Z,1.80
2019-02-18T02:40:39.915Z,1.80
2019-02-18T02:43:06.720Z,1.80
2019-02-18T02:45:34.182Z,1.80
2019-02-18T02:48:00.914Z,1.80
2019-02-18T02:50:28.404Z,1.90
2019-02-18T02:52:55.090Z,1.90
2019-02-18T02:55:21.812Z,1.80
2019-02-18T02:57:48.517Z,1.80
2019-02-18T03:00:15.280Z,1.90
2019-02-18T03:02:42.754Z,2.00
2019-02-18T03:05:09.581Z,1.90
2019-02-18T03:07:36.301Z,2.00
2019-02-18T03:10:12.349Z,2.00
2019-02-18T03:12:39.113Z,1.90
2019-02-18T03:15:13.288Z,2.00
2019-02-18T03:17:40.015Z,1.90
2019-02-18T03:20:07.499Z,1.90
2019-02-18T03:22:34.440Z,1.90
2019-02-18T03:25:07.232Z,1.80
2019-02-18T03:27:33.913Z,1.90
2019-02-18T03:30:17.558Z,1.80
2019-02-18T03:32:45.486Z,1.90
2019-02-18T03:35:12.316Z,1.80
2019-02-18T03:37:39.160Z,1.80
2019-02-18T03:40:06.174Z,1.90
2019-02-18T03:42:33.609Z,1.90
2019-02-18T03:45:01.265Z,1.90
2019-02-18T03:47:28.076Z,1.90
2019-02-18T03:49:54.788Z,1.90
2019-02-18T03:52:22.292Z,1.90
2019-02-18T03:54:49.111Z,1.90
2019-02-18T03:57:16.156Z,1.80
2019-02-18T03:59:42.895Z,1.90
2019-02-18T04:02:09.947Z,1.90
2019-02-18T04:04:36.812Z,1.90
2019-02-18T04:07:04.570Z,1.90
2019-02-18T04:09:31.324Z,1.90
2019-02-18T04:11:58.234Z,1.90
2019-02-18T04:14:25.186Z,1.90
2019-02-18T04:16:52.116Z,1.90
2019-02-18T04:19:18.969Z,1.90
2019-02-18T04:21:46.117Z,1.90
2019-02-18T04:24:12.847Z,1.90
2019-02-18T04:26:40.522Z,1.80
2019-02-18T04:29:07.941Z,1.80
2019-02-18T04:31:34.738Z,1.80
2019-02-18T04:34:01.629Z,1.80
2019-02-18T04:36:28.421Z,1.90
2019-02-18T04:38:55.211Z,1.90
2019-02-18T04:41:22.092Z,1.80
2019-02-18T04:43:48.834Z,1.80
2019-02-18T04:46:15.673Z,1.80
2019-02-18T04:48:42.346Z,1.80
2019-02-18T04:51:09.276Z,1.70
2019-02-18T04:53:35.968Z,1.60
2019-02-18T04:56:02.640Z,1.60
2019-02-18T04:58:29.375Z,1.50
2019-02-18T05:00:56.153Z,1.40
2019-02-18T05:03:23.105Z,1.50
2019-02-18T05:05:49.905Z,1.40
2019-02-18T05:08:16.670Z,1.40
2019-02-18T05:10:43.483Z,1.50
2019-02-18T05:13:10.946Z,1.60
2019-02-18T05:15:40.313Z,1.60
2019-02-18T05:18:05.875Z,1.60
2019-02-18T05:20:32.553Z,1.60
2019-02-18T05:22:59.271Z,1.70
2019-02-18T05:25:26.930Z,1.70
2019-02-18T05:27:55.636Z,1.60
2019-02-18T05:30:22.527Z,1.70
2019-02-18T05:32:49.379Z,1.70
2019-02-18T05:35:17.345Z,1.70
2019-02-18T05:37:46.615Z,1.80
2019-02-18T05:40:13.473Z,1.70
2019-02-18T05:42:42.046Z,1.80
2019-02-18T05:45:09.077Z,1.80
2019-02-18T05:47:36.553Z,1.80
2019-02-18T05:50:04.131Z,1.80
2019-02-18T05:52:31.974Z,1.90
2019-02-18T05:54:58.636Z,1.90
2019-02-18T05:57:26.099Z,1.90
2019-02-18T05:59:52.843Z,1.90
2019-02-18T06:02:19.578Z,2.00
2019-02-18T06:04:46.297Z,2.00
2019-02-18T06:07:14.187Z,2.00
2019-02-18T06:09:41.959Z,2.10
2019-02-18T06:12:09.889Z,2.00
2019-02-18T06:14:37.763Z,2.10
2019-02-18T06:17:04.562Z,2.10
2019-02-18T06:19:31.356Z,2.10
2019-02-18T06:21:58.615Z,2.10
2019-02-18T06:24:25.698Z,2.10
2019-02-18T06:26:53.204Z,2.10
2019-02-18T06:29:19.934Z,2.10
2019-02-18T06:31:48.258Z,2.20
2019-02-18T06:34:15.325Z,2.20
2019-02-18T06:36:42.473Z,2.20
2019-02-18T06:39:09.914Z,2.30
2019-02-18T06:41:36.657Z,2.30
2019-02-18T06:44:03.795Z,2.30
2019-02-18T06:46:31.783Z,2.30
2019-02-18T06:48:58.665Z,2.20
2019-02-18T06:51:25.540Z,2.20
2019-02-18T06:53:53.020Z,2.30
2019-02-18T06:56:19.835Z,2.30
2019-02-18T06:58:48.062Z,2.30
2019-02-18T07:01:15.750Z,2.30
2019-02-18T07:03:46.197Z,2.30
2019-02-18T07:06:26.387Z,2.40
2019-02-18T07:09:09.292Z,2.30
2019-02-18T07:14:28.995Z,2.40
2019-02-18T07:16:55.746Z,2.50
2019-02-18T07:19:22.671Z,2.50
2019-02-18T07:21:49.395Z,2.60
2019-02-18T07:24:16.891Z,2.80
2019-02-18T07:26:43.688Z,2.70
2019-02-18T07:29:10.554Z,2.90
2019-02-18T07:31:37.292Z,2.70
2019-02-18T07:34:04.779Z,2.80
2019-02-18T07:36:31.477Z,2.70
2019-02-18T07:38:58.918Z,2.70
2019-02-18T07:41:26.425Z,2.70
2019-02-18T07:43:53.105Z,2.70
2019-02-18T07:46:20.550Z,2.80
2019-02-18T07:48:47.301Z,2.80
2019-02-18T07:51:13.970Z,2.80
2019-02-18T07:53:41.393Z,2.80
2019-02-18T07:56:08.185Z,2.80
2019-02-18T07:58:35.027Z,2.90
2019-02-18T08:01:03.413Z,2.80
2019-02-18T08:03:30.249Z,2.80
2019-02-18T08:05:56.922Z,2.80
2019-02-18T08:08:23.893Z,2.80
2019-02-18T08:10:51.463Z,3.00
2019-02-18T08:13:19.054Z,3.00
2019-02-18T08:15:46.006Z,2.90
2019-02-18T08:18:12.823Z,3.00
2019-02-18T08:20:39.564Z,3.00
2019-02-18T08:23:06.426Z,3.00
2019-02-18T08:25:33.257Z,3.00
2019-02-18T08:27:59.981Z,3.00
2019-02-18T08:30:26.789Z,2.90
2019-02-18T08:32:53.809Z,3.00
2019-02-18T08:35:20.640Z,3.00
2019-02-18T08:37:48.056Z,3.00
2019-02-18T08:40:22.137Z,3.00
2019-02-18T08:42:42.403Z,2.90
2019-02-18T08:45:10.122Z,2.90
2019-02-18T08:47:36.903Z,3.00
2019-02-18T08:50:03.666Z,3.00
2019-02-18T08:52:30.387Z,2.90
2019-02-18T08:54:57.185Z,3.00
2019-02-18T08:57:24.887Z,3.00
2019-02-18T08:59:51.684Z,3.00
2019-02-18T09:02:18.491Z,3.10
2019-02-18T09:04:45.315Z,3.10
2019-02-18T09:07:12.159Z,3.00
2019-02-18T09:09:38.936Z,3.10
2019-02-18T09:12:05.741Z,3.10
2019-02-18T09:14:32.511Z,3.10
2019-02-18T09:16:59.364Z,3.10
2019-02-18T09:19:26.914Z,3.10
2019-02-18T09:21:54.688Z,3.10
2019-02-18T09:24:24.348Z,3.10
2019-02-18T09:26:51.063Z,3.10
2019-02-18T09:29:18.550Z,3.10
2019-02-18T09:31:45.458Z,3.10
2019-02-18T09:34:12.323Z,3.20
2019-02-18T09:36:40.020Z,3.40
2019-02-18T09:39:09.687Z,3.40
2019-02-18T09:41:37.191Z,3.30
2019-02-18T09:44:03.932Z,3.20
2019-02-18T09:46:30.795Z,3.30
2019-02-18T09:48:57.575Z,3.20
2019-02-18T09:51:24.345Z,3.30
2019-02-18T09:53:51.151Z,3.20
2019-02-18T09:56:17.849Z,3.20
2019-02-18T09:58:44.578Z,3.00
2019-02-18T10:01:11.383Z,3.10
2019-02-18T10:03:38.807Z,3.20
2019-02-18T10:06:05.597Z,3.20
2019-02-18T10:08:33.158Z,3.20
2019-02-18T10:10:59.931Z,3.20
2019-02-18T10:13:26.694Z,3.20
2019-02-18T10:15:53.589Z,3.20
2019-02-18T10:18:20.388Z,3.20
2019-02-18T10:20:47.916Z,3.40
2019-02-18T10:23:14.735Z,3.30
2019-02-18T10:25:41.486Z,3.30
2019-02-18T10:28:08.271Z,3.30
2019-02-18T10:30:35.018Z,3.20
2019-02-18T10:33:01.923Z,3.30
2019-02-18T10:35:28.852Z,3.40
2019-02-18T10:37:55.606Z,3.30
2019-02-18T10:40:22.304Z,3.30
2019-02-18T10:42:49.123Z,3.30
2019-02-18T10:45:16.583Z,3.20
2019-02-18T10:47:43.353Z,3.20
2019-02-18T10:50:11.024Z,3.30
2019-02-18T10:52:37.774Z,3.30
2019-02-18T10:55:04.646Z,3.30
2019-02-18T10:57:31.453Z,3.40
2019-02-18T10:59:59.286Z,3.40
2019-02-18T11:02:25.358Z,3.40
2019-02-18T11:04:52.902Z,3.50
2019-02-18T11:07:19.685Z,3.50
2019-02-18T11:09:46.473Z,3.70
2019-02-18T11:12:13.246Z,3.70
2019-02-18T11:14:39.968Z,3.80
2019-02-18T11:17:06.797Z,3.70
2019-02-18T11:19:33.528Z,3.70
2019-02-18T11:22:00.244Z,3.70
2019-02-18T11:24:27.800Z,3.80
2019-02-18T11:26:54.632Z,3.80
2019-02-18T11:29:21.372Z,3.80
2019-02-18T11:31:48.277Z,3.80
2019-02-18T11:34:15.127Z,3.70
2019-02-18T11:36:41.920Z,3.70
2019-02-18T11:39:09.494Z,3.60
2019-02-18T11:41:36.230Z,3.60
2019-02-18T11:44:03.004Z,3.60
2019-02-18T11:46:29.790Z,3.50
2019-02-18T11:48:56.619Z,3.50
2019-02-18T11:51:23.346Z,3.50
2019-02-18T11:53:50.086Z,3.60
2019-02-18T11:56:16.814Z,3.60
2019-02-18T11:58:43.629Z,3.60
2019-02-18T12:01:10.397Z,3.70
2019-02-18T12:03:37.125Z,3.80
2019-02-18T12:06:03.936Z,3.80
2019-02-18T12:08:31.426Z,3.80
2019-02-18T12:10:58.248Z,3.80
2019-02-18T12:13:25.797Z,4.00
2019-02-18T12:15:52.556Z,4.00
2019-02-18T12:18:19.335Z,4.00
2019-02-18T12:20:46.219Z,4.10
2019-02-18T12:23:12.990Z,4.10
2019-02-18T12:25:39.786Z,4.20
2019-02-18T12:28:06.532Z,4.10
2019-02-18T12:30:34.097Z,4.30
2019-02-18T12:33:00.894Z,4.30
2019-02-18T12:35:31.106Z,4.30
2019-02-18T12:37:55.816Z,4.30
2019-02-18T12:40:22.277Z,4.30
2019-02-18T12:42:49.944Z,4.30
2019-02-18T12:45:16.713Z,4.30
2019-02-18T12:47:43.482Z,4.40
2019-02-18T12:50:10.290Z,4.30
2019-02-18T12:52:37.026Z,4.30
2019-02-18T12:55:04.625Z,4.40
2019-02-18T12:57:31.477Z,4.40
2019-02-18T12:59:59.254Z,4.50
2019-02-18T13:02:25.827Z,4.50
2019-02-18T13:04:53.332Z,4.60
2019-02-18T13:07:20.176Z,4.60
2019-02-18T13:09:46.939Z,4.60
2019-02-18T13:12:13.745Z,4.60
2019-02-18T13:14:40.532Z,4.70
2019-02-18T13:17:08.160Z,4.60
2019-02-18T13:19:34.929Z,4.60
2019-02-18T13:22:01.723Z,4.60
2019-02-18T13:24:28.589Z,4.70
2019-02-18T13:26:55.424Z,4.70
2019-02-18T13:29:22.118Z,4.70
2019-02-18T13:31:49.691Z,4.70
2019-02-18T13:34:16.478Z,4.70
2019-02-18T13:36:43.382Z,4.70
2019-02-18T13:39:10.315Z,4.70
2019-02-18T13:41:37.089Z,4.70
2019-02-18T13:44:03.955Z,4.70
2019-02-18T13:46:30.871Z,4.70
2019-02-18T13:48:57.620Z,4.90
2019-02-18T13:51:24.632Z,4.80
2019-02-18T13:53:52.066Z,4.80
2019-02-18T13:56:19.623Z,4.80
2019-02-18T13:58:46.417Z,4.80
2019-02-18T14:01:13.273Z,4.70
2019-02-18T14:03:40.034Z,4.70
2019-02-18T14:06:06.815Z,4.70
2019-02-18T14:08:34.381Z,4.60
2019-02-18T14:11:01.977Z,4.60
2019-02-18T14:13:28.732Z,4.60
2019-02-18T14:15:55.607Z,4.60
2019-02-18T14:18:22.502Z,4.50
2019-02-18T14:20:49.187Z,4.50
2019-02-18T14:23:16.025Z,4.50
2019-02-18T14:25:42.795Z,4.60
2019-02-18T14:28:09.575Z,4.60
2019-02-18T14:30:36.397Z,4.70
2019-02-18T14:33:03.177Z,4.70
2019-02-18T14:35:30.738Z,4.70
2019-02-18T14:37:57.658Z,4.70
2019-02-18T14:40:24.428Z,4.80
2019-02-18T14:42:51.231Z,4.70
2019-02-18T14:45:17.977Z,4.70
2019-02-18T14:47:44.745Z,4.70
2019-02-18T14:50:11.520Z,4.70
2019-02-18T14:52:39.124Z,4.50
2019-02-18T14:55:06.274Z,4.50
2019-02-18T14:57:33.042Z,4.60
2019-02-18T14:59:59.801Z,4.60
2019-02-18T15:02:28.323Z,4.60
2019-02-18T15:04:54.806Z,4.50
2019-02-18T15:07:21.611Z,4.50
2019-02-18T15:09:48.303Z,4.60
2019-02-18T15:12:15.113Z,4.50
2019-02-18T15:14:42.767Z,4.50
2019-02-18T15:17:08.787Z,4.50
2019-02-18T15:19:35.623Z,4.50
2019-02-18T15:22:02.464Z,4.50
2019-02-18T15:24:29.315Z,4.60
2019-02-18T15:26:56.012Z,4.60
2019-02-18T15:29:23.566Z,4.60
2019-02-18T15:31:50.297Z,4.60
2019-02-18T15:34:17.012Z,4.60
2019-02-18T15:36:43.840Z,4.60
2019-02-18T15:39:11.401Z,4.50
2019-02-18T15:41:38.232Z,4.50
2019-02-18T15:44:05.538Z,4.50
2019-02-18T15:46:33.250Z,4.50
2019-02-18T15:49:00.197Z,4.50
2019-02-18T15:51:27.027Z,4.50
2019-02-18T15:53:53.744Z,4.50
2019-02-18T15:56:21.864Z,4.40
2019-02-18T15:58:48.727Z,4.40
2019-02-18T16:01:15.576Z,4.40
2019-02-18T16:03:42.522Z,4.40
2019-02-18T16:06:09.485Z,4.40
2019-02-18T16:08:36.344Z,4.40
2019-02-18T16:11:03.815Z,4.30
2019-02-18T16:13:30.607Z,4.30
2019-02-18T16:15:57.309Z,4.30
2019-02-18T16:18:23.980Z,4.40
2019-02-18T16:20:50.793Z,4.40
2019-02-18T16:23:17.535Z,4.30
2019-02-18T16:25:45.198Z,4.40
2019-02-18T16:28:11.982Z,4.40
2019-02-18T16:30:38.657Z,4.40
2019-02-18T16:33:05.473Z,4.40
2019-02-18T16:35:32.231Z,4.50
2019-02-18T16:37:59.011Z,4.40
2019-02-18T16:40:27.307Z,4.40
2019-02-18T16:42:59.172Z,4.30
2019-02-18T16:45:19.487Z,4.30
2019-02-18T16:47:47.102Z,4.40
2019-02-18T16:50:13.864Z,4.30
2019-02-18T16:52:40.561Z,4.40
2019-02-18T16:55:09.266Z,4.40
2019-02-18T16:57:36.093Z,4.40
2019-02-18T17:00:02.866Z,4.30
2019-02-18T17:02:29.641Z,4.40
2019-02-18T17:04:57.138Z,4.40
2019-02-18T17:07:23.878Z,4.40
2019-02-18T17:09:50.648Z,4.40
2019-02-18T17:12:17.359Z,4.40
2019-02-18T17:14:44.049Z,4.40
2019-02-18T17:17:11.480Z,4.30
2019-02-18T17:19:39.902Z,4.40
2019-02-18T17:22:06.060Z,4.40
2019-02-18T17:24:32.748Z,4.40
2019-02-18T17:27:00.208Z,4.40
2019-02-18T17:29:26.999Z,4.40
2019-02-18T17:31:53.701Z,4.40
2019-02-18T17:34:21.195Z,4.40
2019-02-18T17:36:47.995Z,4.40
2019-02-18T17:39:14.798Z,4.40
2019-02-18T17:41:42.299Z,4.40
2019-02-18T17:44:09.794Z,4.40
2019-02-18T17:46:36.541Z,4.40
2019-02-18T17:49:03.991Z,4.40
2019-02-18T17:51:31.070Z,4.40
2019-02-18T17:53:57.883Z,4.40
2019-02-18T17:56:24.624Z,4.40
2019-02-18T17:58:51.397Z,4.40
2019-02-18T18:01:18.127Z,4.50
2019-02-18T18:03:44.783Z,4.50
2019-02-18T18:06:11.532Z,4.50
2019-02-18T18:08:38.218Z,4.40
2019-02-18T18:11:04.935Z,4.50
2019-02-18T18:13:31.688Z,4.50
2019-02-18T18:15:59.180Z,4.60
2019-02-18T18:18:25.864Z,4.50
2019-02-18T18:20:53.343Z,4.60
2019-02-18T18:23:20.041Z,4.60
2019-02-18T18:25:46.779Z,4.60
2019-02-18T18:28:13.573Z,4.60
2019-02-18T18:30:40.515Z,4.70
2019-02-18T18:33:08.038Z,4.70
2019-02-18T18:35:34.831Z,4.70
2019-02-18T18:38:01.564Z,4.70
2019-02-18T18:40:28.289Z,4.70
2019-02-18T18:42:55.354Z,4.70
2019-02-18T18:45:21.997Z,4.70
2019-02-18T18:47:48.670Z,4.70
2019-02-18T18:50:18.491Z,4.80
2019-02-18T18:52:45.391Z,4.80
2019-02-18T18:55:12.069Z,4.70
2019-02-18T18:57:38.871Z,4.70
2019-02-18T19:00:14.345Z,4.70
2019-02-18T19:02:41.136Z,4.80
2019-02-18T19:05:08.678Z,4.60
2019-02-18T19:07:35.434Z,4.60
2019-02-18T19:10:02.989Z,4.60
2019-02-18T19:12:30.428Z,4.60
2019-02-18T19:14:57.153Z,4.60
2019-02-18T19:17:23.886Z,4.70
2019-02-18T19:19:57.728Z,4.70
2019-02-18T19:22:17.296Z,4.70
2019-02-18T19:24:44.180Z,4.70
2019-02-18T19:27:10.837Z,4.60
2019-02-18T19:29:37.529Z,4.60
2019-02-18T19:32:05.072Z,4.60
2019-02-18T19:34:31.873Z,4.60
2019-02-18T19:36:59.356Z,4.60
2019-02-18T19:39:26.146Z,4.60
2019-02-18T19:41:53.667Z,4.60
2019-02-18T19:44:20.500Z,4.60
2019-02-18T19:46:47.346Z,4.60
2019-02-18T19:49:14.130Z,4.50
2019-02-18T19:51:41.078Z,4.50
2019-02-18T19:54:07.860Z,4.50
2019-02-18T19:56:34.655Z,4.50
2019-02-18T19:59:01.701Z,4.50
2019-02-18T20:01:28.473Z,4.50
2019-02-18T20:03:55.284Z,4.50
2019-02-18T20:06:22.088Z,4.50
2019-02-18T20:08:48.843Z,4.50
2019-02-18T20:11:15.636Z,4.50
2019-02-18T20:13:44.645Z,4.40
2019-02-18T20:16:11.723Z,4.40
2019-02-18T20:18:38.991Z,4.30
2019-02-18T20:21:06.931Z,4.30
2019-02-18T20:23:32.658Z,4.30
2019-02-18T20:25:59.504Z,4.20
2019-02-18T20:28:26.290Z,4.30
2019-02-18T20:30:53.135Z,4.30
2019-02-18T20:33:20.003Z,4.30
2019-02-18T20:35:47.023Z,4.30
2019-02-18T20:38:13.893Z,4.40
2019-02-18T20:40:42.354Z,4.40
2019-02-18T20:43:09.218Z,4.40
2019-02-18T20:45:36.196Z,4.30
2019-02-18T20:48:03.280Z,4.30
2019-02-18T20:50:30.143Z,4.30
2019-02-18T20:52:57.233Z,4.30
2019-02-18T20:55:24.081Z,4.30
2019-02-18T20:57:51.701Z,4.30
2019-02-18T21:00:19.782Z,4.30
2019-02-18T21:02:46.726Z,4.30
2019-02-18T21:05:13.497Z,4.30
2019-02-18T21:07:40.244Z,4.30
2019-02-18T21:10:08.569Z,4.30
2019-02-18T21:12:35.239Z,4.40
2019-02-18T21:15:01.961Z,4.40
2019-02-18T21:17:28.704Z,4.30
2019-02-18T21:19:58.935Z,4.40
2019-02-18T21:22:25.770Z,4.30
2019-02-18T21:24:53.432Z,4.50
2019-02-18T21:27:20.224Z,4.40
2019-02-18T21:29:47.768Z,4.40
2019-02-18T21:32:16.002Z,4.40
2019-02-18T21:34:43.131Z,4.40
2019-02-18T21:37:10.281Z,4.40
2019-02-18T21:39:37.352Z,4.40
2019-02-18T21:42:04.180Z,4.40
2019-02-18T21:44:32.710Z,4.40
2019-02-18T21:47:00.523Z,4.40
2019-02-18T21:49:29.286Z,4.40
2019-02-18T21:51:56.674Z,4.40
2019-02-18T21:54:23.618Z,4.40
2019-02-18T21:56:50.377Z,4.40
2019-02-18T21:59:17.134Z,4.40
2019-02-18T22:01:44.349Z,4.30
2019-02-18T22:04:11.331Z,4.30
2019-02-18T22:06:41.137Z,4.30
2019-02-18T22:09:07.895Z,4.30
2019-02-18T22:11:34.802Z,4.30
2019-02-18T22:14:01.627Z,4.30
2019-02-18T22:16:28.578Z,4.30
2019-02-18T22:18:55.239Z,4.30
2019-02-18T22:21:22.598Z,4.30
2019-02-18T22:23:50.267Z,4.20
2019-02-18T22:26:17.122Z,4.10
2019-02-18T22:28:44.647Z,4.20
2019-02-18T22:31:11.399Z,4.20
2019-02-18T22:33:38.068Z,4.20
2019-02-18T22:36:05.266Z,4.30
2019-02-18T22:38:32.118Z,4.20
2019-02-18T22:40:59.798Z,4.30
2019-02-18T22:43:26.610Z,4.20
2019-02-18T22:45:53.426Z,4.20
2019-02-18T22:48:20.201Z,4.20
2019-02-18T22:50:48.290Z,4.10
2019-02-18T22:53:15.278Z,4.00
2019-02-18T22:55:46.468Z,4.00
2019-02-18T22:58:14.509Z,4.00
2019-02-18T23:00:48.167Z,4.00
2019-02-18T23:03:15.233Z,3.90
2019-02-18T23:05:43.003Z,4.00
2019-02-18T23:08:09.734Z,4.00
2019-02-18T23:10:36.395Z,3.90
2019-02-18T23:13:04.628Z,4.00
2019-02-18T23:15:35.443Z,4.00
2019-02-18T23:18:06.907Z,4.00
2019-02-18T23:20:34.343Z,4.10
2019-02-18T23:23:01.288Z,4.10
2019-02-18T23:25:28.129Z,4.10
2019-02-18T23:27:55.594Z,4.00
2019-02-18T23:30:22.477Z,4.10
2019-02-18T23:32:49.261Z,4.10
2019-02-18T23:35:16.741Z,4.10
2019-02-18T23:37:43.780Z,4.20
2019-02-18T23:40:10.458Z,4.20
2019-02-18T23:42:37.213Z,4.20
2019-02-18T23:45:04.396Z,4.20
2019-02-18T23:47:31.865Z,4.20
2019-02-18T23:49:59.263Z,4.20
2019-02-18T23:52:27.781Z,4.30
2019-02-18T23:54:58.177Z,4.40
2019-02-18T23:57:25.046Z,4.30
2019-02-18T23:59:52.638Z,4.40
